Delray Beach, FL (33444)

2:06 PM EDT on August 04, 2015 (GMT -0400)
Delray Beach | | Change Station
CLOSE
Current Station
Personal Weather Station
Location: Delray Beach, FL
Elevation: 30 ft
Nearby Weather Stations

Elev 30 ft 26.47 °N, 80.09 °W | Updated 11 seconds ago

Mostly Cloudy
Mostly Cloudy
88.5 °F
Feels Like 109 °F
N
2.2
Wind Variable Wind from West
Gusts 4.7 mph

Today
High -- | Low -- °F
--% Chance of Precip.
Yesterday
High -- | Low -- °F
Precip. -- in
6:46 AM 8:05 PM
Waning Gibbous, 75% visible
Pressure 30.08 in
Visibility 10.0 miles
Clouds Mostly Cloudy 3200 ft
Mostly Cloudy 4600 ft
Mostly Cloudy 5500 ft
Heat Index 109 °F
Dew Point 82 °F
Humidity 82%
Rainfall 0.00 in
Snow Depth Not available.
UV 8 out of 12
Pollen 3.40 out of 12
Air Quality Not available.
Flu Activity Not available.
METAR KPMP 041753Z VRB03KT 10SM BKN032 BKN046 BKN055 31/22 A3007 RMK AO2 LTG DSNT SW SLP185 T03110222 10322 20272 50000

More Conditions Fewer Conditions

Pressure 30.08 in
Visibility 10.0 miles
Clouds Mostly Cloudy 3200 ft
Mostly Cloudy 4600 ft
Mostly Cloudy 5500 ft
Heat Index 109 °F
Dew Point 82 °F
Humidity 82%
Rainfall 0.00 in
Snow Depth Not available.
UV 8 out of 12
Pollen 3.40 out of 12
Air Quality Not available.
Flu Activity Not available.
METAR KPMP 041753Z VRB03KT 10SM BKN032 BKN046 BKN055 31/22 A3007 RMK AO2 LTG DSNT SW SLP185 T03110222 10322 20272 50000

More Conditions Fewer Conditions

Nowcast | as of 12:30 PM EDT on August 4, 2015

Scattered showers and a few thunderstorms will develop along the east and West Coast sea breezes this afternoon and move slowly to the north at around 5 mph. The strongest storms will produce frequent lightning strikes, brief heavy rainfall and gusty winds to 40 mph. The storms will become more numerous by mid afternoon over the interior areas. A few showers will also move north across the Atlantic waters.

×

10-Day Weather Forecast

×

Almanac

Astronomy

Aug. 04, 2015 Rise Set
Actual Time
Civil Twilight
Nautical Twilight
Astronomical Twilight
Moon
Length of Visible Light
Length of Day
Tomorrow will be .
, % of the Moon is Illuminated

Today's Extremes

State Highs State Lows

Community

WunderPhotos

Upload Photos

1,843,930 photos uploaded!

WunderBlogs® & News

Nearby

Air Quality

  Air Quality AQ Index Pollutant
Not available.

Snow Depth

Station Depth Elevation

Earthquake Activity

City Distance Mag. Time & Date
Minimum magnitude displayed is 2.5.

Coastal Water Temperatures

Place Temperature

Stations

Nearby Weather Stations

Station Location Temp. Windchill Dew Point Humidity Wind Precip. Elev Updated Type